Terminal Aerodrome Forecast
Issued by NWS Lake Charles, LA

Home | Current Version | Previous Version | Text Only | Print | Product List | Glossary On
Versions: 1 2 3 4 5 6 7 8 9 10 11 12 13 14 15 16 17
000
FTUS44 KLCH 251443 AAA
TAFLCH
TAF AMD
KLCH 251443Z 2515/2612 VRB05KT 4SM -TSRA OVC015CB
      TEMPO 2515/2517 1SM +TSRA OVC010CB
     FM251800 21010G15KT P6SM BKN025
     FM260100 VRB03KT 4SM BR OVC015=

USA.gov is the U.S. government's official web portal to all federal, state and local government web resources and services.